Latest Weather Observations for Campania

IDT60801

Issued at 9:02 am EST Tuesday 26 May 2015 (issued every 30 minutes, with the page automatically refreshed every 10 minutes)

About weather observations | Map of weather stations | Latest weather observations for TAS | Other Formats
Station Details ID: 094212 Name: CAMPANIA (KINCORA) Lat: -42.69 Lon: 147.43 Height: 45.0 m
Data from the previous 72 hours. | See also: Recent months at Campania
Date/Time
EST
Temp
°C
App
Temp
°C
Dew
Point
Rel
Hum
%
Delta-T
°C
Wind Press
QNH
hPa
Press
MSL
hPa
Rain
since 9 am
mm
Dir
 
Spd
km/h
Gust
km/h
Spd
kts
Gust
kts
26/09:00am 8.5 6.3 6.0 84 1.1 NNE 7 9 4 5 - - 0.0
26/08:30am 6.8 4.4 5.4 91 0.6 NW 7 7 4 4 - - 0.0
26/08:00am 4.6 1.9 3.7 94 0.4 N 7 9 4 5 - - 0.0
26/07:30am 4.3 1.5 3.0 91 0.5 N 7 9 4 5 - - 0.0
26/07:00am 5.4 2.0 4.1 91 0.6 NE 11 15 6 8 - - 0.0
26/06:30am 5.9 3.8 4.1 88 0.8 W 4 7 2 4 - - 0.0
26/06:00am 6.9 4.6 4.6 85 1.0 NE 6 7 3 4 - - 0.0
26/05:30am 8.4 5.3 5.5 82 1.3 N 11 15 6 8 - - 0.0
26/05:00am 11.3 8.5 6.8 74 2.1 N 11 15 6 8 - - 0.0
26/04:30am 12.3 9.4 6.4 67 2.8 NW 11 15 6 8 - - 0.0
26/04:00am 12.5 8.5 6.8 68 2.7 WNW 17 22 9 12 - - 0.0
26/03:30am 8.7 6.4 5.8 82 1.3 N 7 9 4 5 - - 0.0
26/03:00am 8.1 5.6 4.9 80 1.4 NW 7 13 4 7 - - 0.0
26/02:30am 8.4 6.1 5.7 83 1.2 N 7 11 4 6 - - 0.0
26/02:00am 7.8 5.0 5.1 83 1.2 NNE 9 13 5 7 - - 0.0
26/01:30am 8.5 7.1 5.4 81 1.4 NW 2 6 1 3 - - 0.0
26/01:00am 9.5 8.6 5.9 78 1.7 CALM 0 0 0 0 - - 0.0
26/12:30am 9.6 7.8 5.4 75 1.9 W 4 7 2 4 - - 0.0
26/12:00am 9.3 7.2 6.0 80 1.5 NNW 6 13 3 7 - - 0.0
 
Date/Time
EST
Temp
°C
App
Temp
°C
Dew
Point
Rel
Hum
%
Delta-T
°C
Wind Press
QNH
hPa
Press
MSL
hPa
Rain
since 9 am
mm
Dir
 
Spd
km/h
Gust
km/h
Spd
kts
Gust
kts
25/11:30pm 10.5 8.5 6.3 75 2.0 NW 6 9 3 5 - - 0.0
25/11:00pm 8.1 6.1 6.1 87 0.9 NW 6 7 3 4 - - 0.0
25/10:30pm 8.9 5.9 6.2 83 1.2 NE 11 15 6 8 - - 0.0
25/10:00pm 7.6 5.4 5.2 85 1.1 N 6 9 3 5 - - 0.0
25/09:30pm 6.1 3.2 4.6 90 0.6 N 9 13 5 7 - - 0.0
25/09:00pm 5.2 2.6 3.2 87 0.8 NNW 6 9 3 5 - - 0.0
25/08:30pm 6.7 3.8 4.4 85 1.0 N 9 11 5 6 - - 0.0
25/08:00pm 6.8 4.3 4.8 87 0.9 N 7 9 4 5 - - 0.0
25/07:30pm 7.2 4.7 4.9 85 1.0 N 7 13 4 7 - - 0.0
25/07:00pm 7.2 4.0 5.0 86 1.0 N 11 13 6 7 - - 0.0
25/06:30pm 6.9 4.0 4.6 85 1.0 N 9 11 5 6 - - 0.0
25/06:00pm 7.3 4.0 4.6 83 1.2 NNW 11 13 6 7 - - 0.0
25/05:30pm 7.3 5.3 4.4 82 1.3 WNW 4 9 2 5 - - 0.0
25/05:00pm 7.6 5.1 4.7 82 1.3 NW 7 11 4 6 - - 0.0
25/04:30pm 11.0 8.9 6.0 71 2.3 NW 6 7 3 4 - - 0.0
25/04:00pm 12.1 10.1 6.4 68 2.7 NNW 6 9 3 5 - - 0.0
25/03:30pm 12.8 10.6 6.2 64 3.1 WNW 7 11 4 6 - - 0.0
25/03:00pm 13.0 10.8 6.4 64 3.2 WNW 7 9 4 5 - - 0.0
25/02:30pm 12.7 9.7 5.8 63 3.2 WNW 11 15 6 8 - - 0.0
25/02:00pm 12.9 10.3 6.3 64 3.1 WNW 9 13 5 7 - - 0.0
25/01:30pm 12.9 9.8 5.6 61 3.4 WNW 11 17 6 9 - - 0.0
25/01:00pm 13.1 10.1 6.0 62 3.4 NW 11 17 6 9 - - 0.0
25/12:30pm 12.9 9.1 5.6 61 3.4 WNW 15 20 8 11 - - 0.0
25/12:00pm 12.7 9.6 5.6 62 3.3 WNW 11 15 6 8 - - 0.0
25/11:30am 11.9 8.9 6.0 67 2.8 N 11 13 6 7 - - 0.0
25/11:00am 11.6 8.5 5.5 66 2.8 NNE 11 15 6 8 - - 0.0
25/10:30am 10.9 7.4 5.4 69 2.5 NNW 13 15 7 8 - - 0.0
25/10:00am 8.7 5.0 4.5 75 1.9 NNW 13 17 7 9 - - 0.0
25/09:30am 6.2 2.3 3.5 83 1.1 NNW 13 15 7 8 - - 0.0
25/09:00am 5.3 2.2 3.8 90 0.6 NNW 9 11 5 6 - - 0.0
25/08:30am 4.0 0.4 2.8 92 0.5 N 11 13 6 7 - - 0.0
25/08:00am 3.8 0.1 2.5 91 0.5 N 11 13 6 7 - - 0.0
25/07:30am 4.9 0.6 3.4 90 0.6 NNW 15 17 8 9 - - 0.0
25/07:00am 3.9 -0.6 2.3 89 0.6 N 15 17 8 9 - - 0.0
25/06:30am 3.8 -0.3 2.2 89 0.6 NNW 13 15 7 8 - - 0.0
25/06:00am 3.0 -1.1 2.0 93 0.4 N 13 15 7 8 - - 0.0
25/05:30am 1.9 -1.3 0.9 93 0.4 N 7 11 4 6 - - 0.0
25/05:00am 2.4 -0.6 1.1 91 0.5 N 6 9 3 5 - - 0.0
25/04:30am 3.3 -0.5 1.8 90 0.6 N 11 13 6 7 - - 0.0
25/04:00am 3.6 -0.9 2.1 90 0.6 NNE 15 19 8 10 - - 0.0
25/03:30am 3.2 -0.9 2.0 92 0.5 N 13 19 7 10 - - 0.0
25/03:00am 2.3 -2.7 1.3 93 0.4 NNE 17 19 9 10 - - 0.0
25/02:30am 2.1 -2.6 1.2 94 0.3 NNE 15 17 8 9 - - 0.0
25/02:00am 2.2 -2.1 1.3 94 0.3 N 13 17 7 9 - - 0.0
25/01:30am 2.2 -1.3 1.2 93 0.4 N 9 19 5 10 - - 0.0
25/01:00am 2.6 -2.0 1.6 93 0.4 NNE 15 17 8 9 - - 0.0
25/12:30am 2.9 -1.3 1.7 92 0.5 N 13 15 7 8 - - 0.0
25/12:00am 3.1 0.1 2.1 93 0.4 N 7 11 4 6 - - 0.0
 
Date/Time
EST
Temp
°C
App
Temp
°C
Dew
Point
Rel
Hum
%
Delta-T
°C
Wind Press
QNH
hPa
Press
MSL
hPa
Rain
since 9 am
mm
Dir
 
Spd
km/h
Gust
km/h
Spd
kts
Gust
kts
24/11:30pm 2.8 -0.6 1.6 92 0.5 N 9 11 5 6 - - 0.0
24/11:00pm 3.5 -0.2 2.3 92 0.5 N 11 15 6 8 - - 0.0
24/10:30pm 3.4 -0.3 2.4 93 0.4 N 11 13 6 7 - - 0.0
24/10:00pm 3.3 0.0 2.3 93 0.4 N 9 11 5 6 - - 0.0
24/09:30pm 3.5 0.2 2.3 92 0.5 N 9 11 5 6 - - 0.0
24/09:00pm 3.4 -0.3 2.4 93 0.4 NNE 11 13 6 7 - - 0.0
24/08:30pm 2.6 -0.5 1.3 91 0.5 N 7 9 4 5 - - 0.0
24/08:00pm 3.4 0.0 2.1 91 0.5 N 9 11 5 6 - - 0.0
24/07:30pm 3.6 0.3 2.3 91 0.5 N 9 11 5 6 - - 0.0
24/07:00pm 3.8 0.5 2.3 90 0.6 NNW 9 11 5 6 - - 0.0
24/06:30pm 3.9 2.2 1.9 87 0.8 CALM 0 0 0 0 - - 0.0
24/06:00pm 5.1 3.7 3.3 88 0.7 CALM 0 0 0 0 - - 0.0
24/05:30pm 5.0 3.5 2.9 86 0.9 CALM 0 0 0 0 - - 0.0
24/05:00pm 6.2 4.8 3.4 82 1.2 CALM 0 0 0 0 - - 0.0
24/04:30pm 8.1 5.3 3.4 72 2.0 S 7 9 4 5 - - 0.0
24/04:00pm 9.3 6.8 3.5 67 2.5 S 6 7 3 4 - - 0.0
24/03:30pm 10.4 7.7 3.7 63 2.9 SSE 7 9 4 5 - - 0.0
24/03:00pm 10.5 7.9 3.1 60 3.2 SSE 6 7 3 4 - - 0.0
24/02:30pm 11.4 9.6 3.2 57 3.6 ENE 2 6 1 3 - - 0.0
24/02:00pm 11.2 9.0 3.5 59 3.4 SE 4 7 2 4 - - 0.0
24/01:30pm 11.0 8.4 3.3 59 3.4 S 6 11 3 6 - - 0.0
24/01:00pm 11.1 8.5 3.4 59 3.4 NNW 6 9 3 5 - - 0.0
24/12:30pm 11.2 9.0 3.5 59 3.4 N 4 7 2 4 - - 0.0
24/12:00pm 10.2 7.5 3.7 64 2.9 N 7 11 4 6 - - 0.0
24/11:30am 9.4 6.3 3.6 67 2.5 N 9 11 5 6 - - 0.0
24/11:00am 8.4 4.9 3.5 71 2.1 N 11 15 6 8 - - 0.0
24/10:30am 7.5 4.0 3.6 76 1.7 NNE 11 13 6 7 - - 0.0
24/10:00am 6.1 2.6 3.4 83 1.1 NE 11 13 6 7 - - 0.0
24/09:30am 3.7 -1.2 1.9 88 0.7 N 17 20 9 11 - - 0.0
24/09:00am 2.5 -2.1 1.5 93 0.4 NNE 15 17 8 9 - - 0.0
24/08:30am 0.9 -4.3 0.0 94 0.3 N 17 19 9 10 - - 0.0
24/08:00am 0.5 -4.7 -0.2 95 0.3 N 17 20 9 11 - - 0.0
24/07:30am -0.5 -5.5 -1.2 95 0.2 N 15 17 8 9 - - 0.0
24/07:00am -0.3 -4.9 -0.9 96 0.2 N 13 15 7 8 - - 0.0
24/06:30am -0.6 -3.9 -1.3 95 0.2 N 6 7 3 4 - - 0.0
24/06:00am -1.0 -4.4 -1.8 94 0.2 N 6 9 3 5 - - 0.0
24/05:30am -0.6 -4.5 -1.4 94 0.3 N 9 11 5 6 - - 0.0
24/05:00am -0.1 -3.3 -0.8 95 0.2 N 6 9 3 5 - - 0.0
24/04:30am -0.8 -4.3 -1.6 94 0.2 N 7 9 4 5 - - 0.0
24/04:00am 0.0 -2.5 -0.8 94 0.3 NNW 2 7 1 4 - - 0.0
24/03:30am 0.6 -2.6 -0.4 93 0.4 N 6 7 3 4 - - 0.0
24/03:00am 0.1 -3.2 -1.2 91 0.5 N 6 7 3 4 - - 0.0
24/02:30am 1.2 -2.6 -0.6 88 0.6 N 9 11 5 6 - - 0.0
24/02:00am 2.1 -1.5 0.3 88 0.7 N 9 11 5 6 - - 0.0
24/01:30am 3.7 -0.1 1.7 87 0.8 N 11 13 6 7 - - 0.0
24/01:00am 3.0 0.0 0.9 86 0.8 N 6 7 3 4 - - 0.0
24/12:30am 2.4 -0.8 0.8 89 0.6 N 7 11 4 6 - - 0.0
24/12:00am 3.7 -0.1 1.6 86 0.8 NNE 11 15 6 8 - - 0.0
 
Date/Time
EST
Temp
°C
App
Temp
°C
Dew
Point
Rel
Hum
%
Delta-T
°C
Wind Press
QNH
hPa
Press
MSL
hPa
Rain
since 9 am
mm
Dir
 
Spd
km/h
Gust
km/h
Spd
kts
Gust
kts
23/11:30pm 2.7 -0.9 0.6 86 0.8 N 9 11 5 6 - - 0.0
23/11:00pm 3.7 0.6 1.6 86 0.8 N 7 9 4 5 - - 0.0
23/10:30pm 4.2 1.1 1.4 82 1.1 N 7 11 4 6 - - 0.0
23/10:00pm 4.1 0.3 1.6 84 1.0 N 11 15 6 8 - - 0.0
23/09:30pm 4.8 0.6 1.5 79 1.3 N 13 17 7 9 - - 0.0
23/09:00pm 4.4 0.5 1.4 81 1.2 N 11 15 6 8 - - 0.0
23/08:30pm 5.6 2.1 1.5 75 1.6 NNW 9 13 5 7 - - 0.0
23/08:00pm 5.9 2.2 2.2 77 1.5 NW 11 13 6 7 - - 0.0
23/07:30pm 7.2 3.6 2.7 73 1.9 NW 11 19 6 10 - - 0.0
23/07:00pm 6.1 3.1 2.2 76 1.6 N 7 9 4 5 - - 0.0
23/06:30pm 9.4 5.8 2.9 64 2.8 WNW 11 17 6 9 - - 0.0
23/06:00pm 9.2 6.3 2.8 64 2.7 WNW 7 13 4 7 - - 0.0
23/05:30pm 10.0 6.8 3.1 62 3.0 W 9 15 5 8 - - 0.0
23/05:00pm 10.7 6.7 3.0 59 3.3 WNW 13 22 7 12 - - 0.0
23/04:30pm 11.4 6.7 3.2 57 3.6 W 17 30 9 16 - - 0.0
23/04:00pm 12.1 8.2 3.6 56 3.8 WNW 13 22 7 12 - - 0.0
23/03:30pm 12.5 8.3 3.7 55 3.9 W 15 24 8 13 - - 0.0
23/03:00pm 13.2 9.0 3.8 53 4.3 W 15 28 8 15 - - 0.0
23/02:30pm 13.4 8.9 4.0 53 4.3 W 17 32 9 17 - - 0.0
23/02:00pm 13.7 9.6 4.6 54 4.2 W 15 24 8 13 - - 0.0
23/01:30pm 12.8 8.7 4.3 56 3.9 W 15 24 8 13 - - 0.0
23/01:00pm 12.2 7.9 3.4 55 3.9 W 15 24 8 13 - - 0.0
23/12:30pm 13.1 8.5 3.5 52 4.3 W 17 30 9 16 - - 0.0
23/12:00pm 13.2 8.1 4.1 54 4.1 WNW 20 33 11 18 - - 0.0
23/11:30am 12.2 7.0 3.4 55 3.9 WNW 20 33 11 18 - - 0.0
23/11:00am 11.9 7.6 3.2 55 3.8 W 15 33 8 18 - - 0.0
23/10:30am 11.2 5.9 3.0 57 3.6 W 20 33 11 18 - - 0.0
23/10:00am 10.9 4.5 3.0 58 3.4 W 26 43 14 23 - - 0.0
23/09:30am 10.3 4.3 3.1 61 3.1 W 24 35 13 19 - - 0.0

Other Formats:

Comma delimited format used in spreadsheet applications
http://www.bom.gov.au/fwo/IDT60801/IDT60801.95972.axf

JavaScript Object Notation format (JSON) in row-major order
http://www.bom.gov.au/fwo/IDT60801/IDT60801.95972.json